Time;durP1;ratioP1;P1;durP2;ratioP2;P2;SDS_P1;SDS_P2;PMS_P1;PMS_P2;Temp;Humidity;BMP_temperature;BMP_pressure;BME280_temperature;BME280_humidity;BME280_pressure;Samples;Min_cycle;Max_cycle;Signal;HPM_P1;HPM_P2
2022/10/27 00:00:32;;;;;;;39.33;16.10;;;16.10;99.90;;;;;;5050758;28;20037;-67
2022/10/27 00:03:37;;;;;;;42.13;15.73;;;16.20;99.90;;;;;;5050713;28;20384;-66
2022/10/27 00:06:41;;;;;;;37.00;14.60;;;16.10;99.90;;;;;;5050810;28;20048;-67
2022/10/27 00:09:45;;;;;;;41.92;14.50;;;16.10;99.90;;;;;;5050765;28;20506;-66
2022/10/27 00:12:49;;;;;;;38.78;13.10;;;16.10;99.90;;;;;;5051086;28;20376;-66
2022/10/27 00:15:56;;;;;;;39.15;12.60;;;16.00;99.90;;;;;;5050508;28;20079;-67
2022/10/27 00:19:00;;;;;;;49.03;14.48;;;15.90;99.90;;;;;;5050865;28;20092;-67
2022/10/27 00:22:04;;;;;;;38.25;12.40;;;15.90;99.90;;;;;;5051237;28;20048;-67
2022/10/27 00:25:08;;;;;;;42.45;12.75;;;15.90;99.90;;;;;;5038279;28;20044;-67
2022/10/27 00:28:12;;;;;;;41.65;12.77;;;15.90;99.90;;;;;;5050598;28;20064;-67
2022/10/27 00:31:19;;;;;;;38.97;12.40;;;15.90;99.90;;;;;;5054420;28;20511;-67
2022/10/27 00:34:23;;;;;;;36.03;12.60;;;15.90;99.90;;;;;;5053941;28;20047;-67
2022/10/27 00:37:28;;;;;;;39.95;11.50;;;15.90;99.90;;;;;;5054101;28;20392;-67
2022/10/27 00:40:36;;;;;;;37.70;13.55;;;15.80;99.90;;;;;;5054101;28;20040;-67
2022/10/27 00:43:40;;;;;;;42.35;13.00;;;15.70;99.90;;;;;;5054202;28;20383;-67
2022/10/27 00:46:46;;;;;;;39.13;13.88;;;15.70;99.90;;;;;;5054016;28;20040;-67
2022/10/27 00:50:04;;;;;;;43.25;14.80;;;15.70;99.90;;;;;;5053909;28;20388;-66
2022/10/27 00:53:09;;;;;;;44.20;15.55;;;15.80;99.90;;;;;;5053907;28;20040;-67
2022/10/27 00:56:13;;;;;;;45.05;13.65;;;15.80;99.90;;;;;;5053637;28;20048;-67
2022/10/27 00:59:19;;;;;;;48.15;14.27;;;15.80;99.90;;;;;;5054074;28;20502;-67
2022/10/27 01:02:23;;;;;;;42.97;15.02;;;15.80;99.90;;;;;;5054040;28;20064;-67
2022/10/27 01:05:28;;;;;;;66.10;17.17;;;15.80;99.90;;;;;;5053625;28;20044;-67
2022/10/27 01:08:32;;;;;;;46.60;16.75;;;15.80;99.90;;;;;;5054066;28;20036;-67
2022/10/27 01:11:36;;;;;;;45.85;15.68;;;15.70;99.90;;;;;;5041056;28;20052;-67
2022/10/27 01:14:41;;;;;;;43.55;14.48;;;15.70;99.90;;;;;;5053135;28;20404;-67
2022/10/27 01:17:57;;;;;;;43.85;16.77;;;15.60;99.90;;;;;;5053731;28;20036;-67
2022/10/27 01:21:39;;;;;;;46.72;15.32;;;15.60;99.90;;;;;;5053453;28;20040;-67
2022/10/27 01:24:59;;;;;;;42.47;16.90;;;15.60;99.90;;;;;;5052979;28;20044;-67
2022/10/27 01:28:32;;;;;;;46.70;18.45;;;15.60;99.90;;;;;;5053356;28;20040;-67
2022/10/27 01:31:47;;;;;;;47.88;14.88;;;15.50;99.90;;;;;;5040917;28;20052;-67
2022/10/27 01:34:51;;;;;;;38.97;14.80;;;15.50;99.90;;;;;;5052538;28;20056;-67
2022/10/27 01:38:04;;;;;;;38.35;13.38;;;15.40;99.90;;;;;;5053166;28;20036;-67
2022/10/27 01:41:22;;;;;;;45.92;12.93;;;15.40;99.90;;;;;;5051967;28;20048;-67
2022/10/27 01:44:33;;;;;;;48.75;15.77;;;15.30;99.90;;;;;;5052918;28;20051;-67
2022/10/27 01:47:38;;;;;;;41.87;15.83;;;15.30;99.90;;;;;;5052923;28;20048;-67
2022/10/27 01:50:42;;;;;;;38.13;14.27;;;15.30;99.90;;;;;;5053053;28;20278;-67
2022/10/27 01:53:48;;;;;;;39.28;14.65;;;15.20;99.90;;;;;;5052504;28;20494;-67
2022/10/27 01:57:22;;;;;;;45.03;16.67;;;15.20;99.90;;;;;;5052766;28;20064;-67
2022/10/27 02:00:26;;;;;;;43.10;15.88;;;15.20;99.90;;;;;;5052798;28;20044;-67
2022/10/27 02:03:57;;;;;;;45.13;15.75;;;15.20;99.90;;;;;;5052306;28;20044;-67
2022/10/27 02:07:13;;;;;;;43.42;16.08;;;15.10;99.90;;;;;;5052630;28;20120;-67
2022/10/27 02:10:22;;;;;;;39.83;15.20;;;15.10;99.90;;;;;;5052183;28;20056;-67
2022/10/27 02:13:29;;;;;;;41.55;14.95;;;15.10;99.90;;;;;;5052364;28;20099;-66
2022/10/27 02:16:41;;;;;;;48.22;14.45;;;14.90;99.90;;;;;;5052144;28;20044;-66
2022/10/27 02:19:48;;;;;;;47.22;14.30;;;14.90;99.90;;;;;;5052130;28;20036;-67
2022/10/27 02:22:55;;;;;;;34.33;13.75;;;14.80;99.90;;;;;;5052307;28;20040;-66
2022/10/27 02:26:20;;;;;;;40.17;13.57;;;14.80;99.90;;;;;;5052274;28;20407;-67
2022/10/27 02:29:45;;;;;;;32.35;11.77;;;14.80;99.90;;;;;;5052249;28;20068;-67
2022/10/27 02:32:50;;;;;;;43.28;13.82;;;14.80;99.90;;;;;;5052461;28;20043;-67
2022/10/27 02:35:56;;;;;;;42.10;14.50;;;14.90;99.90;;;;;;5052006;28;20048;-67
2022/10/27 02:39:00;;;;;;;42.65;15.10;;;15.00;99.90;;;;;;5039499;28;20036;-67
2022/10/27 02:42:04;;;;;;;48.50;15.43;;;15.00;99.90;;;;;;5052139;28;20040;-67
2022/10/27 02:45:08;;;;;;;54.67;16.92;;;14.90;99.90;;;;;;5051767;28;20392;-67
2022/10/27 02:48:13;;;;;;;45.35;15.68;;;14.80;99.90;;;;;;5051985;28;20384;-67
2022/10/27 02:51:17;;;;;;;51.33;18.17;;;14.70;99.90;;;;;;5039218;28;20044;-67
2022/10/27 02:54:21;;;;;;;53.55;15.80;;;14.70;99.90;;;;;;5051638;28;20040;-67
2022/10/27 02:57:24;;;;;;;124.45;21.48;;;14.60;99.90;;;;;;5052022;28;20118;-67
2022/10/27 03:00:28;;;;;;;153.68;23.15;;;14.40;99.90;;;;;;5051684;28;20400;-67
2022/10/27 03:03:32;;;;;;;59.20;21.90;;;14.40;99.90;;;;;;5051471;28;20048;-67
2022/10/27 03:06:37;;;;;;;64.07;19.80;;;14.30;99.90;;;;;;5051545;28;20052;-66
2022/10/27 03:09:40;;;;;;;107.18;22.08;;;14.30;99.90;;;;;;5051526;28;20426;-67
2022/10/27 03:12:46;;;;;;;93.78;23.65;;;14.30;99.90;;;;;;5051196;28;20039;-67
2022/10/27 03:15:50;;;;;;;53.30;23.23;;;14.30;99.90;;;;;;5051354;28;20511;-67
2022/10/27 03:18:54;;;;;;;64.70;22.17;;;14.30;99.90;;;;;;5051254;28;20048;-66
2022/10/27 03:21:58;;;;;;;78.75;23.85;;;14.30;99.90;;;;;;5051392;28;20052;-66
2022/10/27 03:25:03;;;;;;;131.40;27.58;;;14.30;99.90;;;;;;5050780;28;20099;-66
2022/10/27 03:28:07;;;;;;;54.25;24.13;;;14.30;99.90;;;;;;5051549;28;20048;-66
2022/10/27 03:31:10;;;;;;;54.10;21.55;;;14.20;99.90;;;;;;5051190;28;20052;-66
2022/10/27 03:34:14;;;;;;;67.82;24.30;;;14.20;99.90;;;;;;5051155;28;20059;-67
2022/10/27 03:37:18;;;;;;;55.53;21.38;;;14.10;99.90;;;;;;5051241;28;20143;-66
2022/10/27 03:40:23;;;;;;;40.67;19.55;;;14.00;99.90;;;;;;5051357;28;20052;-66
2022/10/27 03:43:26;;;;;;;35.65;20.73;;;13.90;99.90;;;;;;5050901;28;20435;-67
2022/10/27 03:46:30;;;;;;;30.08;18.73;;;13.80;99.90;;;;;;5051043;28;20056;-67
2022/10/27 03:49:34;;;;;;;46.00;19.45;;;13.80;99.90;;;;;;5051251;28;20040;-67
2022/10/27 03:52:38;;;;;;;41.40;19.23;;;13.80;99.90;;;;;;5050861;28;20051;-66
2022/10/27 03:55:42;;;;;;;38.67;19.48;;;13.90;99.90;;;;;;5050765;28;20064;-66
2022/10/27 03:58:46;;;;;;;35.25;18.55;;;13.90;99.90;;;;;;5050942;28;20048;-66
2022/10/27 04:01:50;;;;;;;36.55;17.25;;;13.80;99.90;;;;;;5051076;28;20068;-67
2022/10/27 04:04:56;;;;;;;42.67;17.58;;;13.80;99.90;;;;;;5051972;28;20423;-66
2022/10/27 04:08:00;;;;;;;35.08;16.48;;;13.80;99.90;;;;;;5054683;28;20633;-67
2022/10/27 04:11:04;;;;;;;47.35;19.60;;;13.80;99.90;;;;;;5054385;28;20044;-67
2022/10/27 04:14:08;;;;;;;48.25;17.25;;;13.90;99.90;;;;;;5054542;28;20047;-66
2022/10/27 04:17:12;;;;;;;44.05;16.42;;;13.70;99.90;;;;;;5055075;28;20380;-66
2022/10/27 04:20:16;;;;;;;42.00;16.10;;;13.70;99.90;;;;;;5054670;28;20044;-66
2022/10/27 04:23:20;;;;;;;39.55;15.80;;;13.70;99.90;;;;;;5054048;28;20048;-66
2022/10/27 04:26:24;;;;;;;38.85;15.50;;;13.70;99.90;;;;;;5054338;28;20494;-66
2022/10/27 04:29:28;;;;;;;35.42;15.23;;;13.70;99.90;;;;;;5054637;28;20040;-66
2022/10/27 04:32:32;;;;;;;40.25;16.08;;;13.60;99.90;;;;;;5054443;28;20048;-66
2022/10/27 04:35:35;;;;;;;42.78;16.35;;;13.70;99.90;;;;;;5054115;28;20052;-66
2022/10/27 04:38:40;;;;;;;38.00;15.50;;;13.60;99.90;;;;;;5054286;28;20060;-67
2022/10/27 04:41:44;;;;;;;35.75;16.50;;;13.60;99.90;;;;;;5054298;28;20384;-66
2022/10/27 04:44:49;;;;;;;36.00;17.42;;;13.60;99.90;;;;;;5053754;28;20056;-67
2022/10/27 04:47:53;;;;;;;42.13;17.52;;;13.60;99.90;;;;;;5054216;28;20048;-66
2022/10/27 04:50:57;;;;;;;127.07;18.13;;;13.50;99.90;;;;;;5053993;28;20060;-67
2022/10/27 04:54:00;;;;;;;45.45;14.35;;;13.50;99.90;;;;;;5053848;28;20044;-66
2022/10/27 04:57:04;;;;;;;66.60;17.60;;;13.40;99.90;;;;;;5053451;28;20040;-67
2022/10/27 05:00:09;;;;;;;52.10;16.58;;;13.30;99.90;;;;;;5054074;28;20048;-66
2022/10/27 05:03:14;;;;;;;36.72;16.38;;;13.40;99.90;;;;;;5053600;28;20124;-66
2022/10/27 05:06:18;;;;;;;70.18;19.67;;;13.30;99.90;;;;;;5053577;28;20052;-66
2022/10/27 05:09:21;;;;;;;43.25;15.98;;;13.40;99.90;;;;;;5054322;28;20380;-67
2022/10/27 05:12:25;;;;;;;183.75;18.00;;;13.40;99.90;;;;;;5053935;28;20044;-66
2022/10/27 05:15:30;;;;;;;114.25;18.85;;;13.50;99.90;;;;;;5053028;28;20048;-66
2022/10/27 05:18:34;;;;;;;96.38;17.17;;;13.50;99.90;;;;;;5053718;28;20507;-66
2022/10/27 05:21:38;;;;;;;42.83;16.40;;;13.40;99.90;;;;;;5053767;28;20376;-66
2022/10/27 05:24:42;;;;;;;35.45;14.32;;;13.40;99.90;;;;;;5052903;28;20040;-66
2022/10/27 05:27:46;;;;;;;73.60;17.23;;;13.40;99.90;;;;;;5053195;28;20040;-66
2022/10/27 05:30:56;;;;;;;59.60;19.38;;;13.40;99.90;;;;;;5052996;28;20037;-66
2022/10/27 05:34:00;;;;;;;53.40;18.20;;;13.40;99.90;;;;;;5052370;28;20036;-67
2022/10/27 05:37:04;;;;;;;56.30;16.25;;;13.30;99.90;;;;;;5052630;28;20040;-66
2022/10/27 05:40:09;;;;;;;53.80;15.45;;;13.20;99.90;;;;;;5052613;28;20044;-66
2022/10/27 05:43:12;;;;;;;47.05;15.07;;;13.10;99.90;;;;;;5052830;28;20044;-67
2022/10/27 05:46:17;;;;;;;37.70;15.90;;;13.10;99.90;;;;;;5052955;28;20387;-66
2022/10/27 05:49:21;;;;;;;33.00;14.65;;;13.20;99.90;;;;;;5052937;28;20044;-66
2022/10/27 05:52:25;;;;;;;34.50;14.00;;;13.20;99.90;;;;;;5052756;28;20503;-67
2022/10/27 05:55:29;;;;;;;34.30;13.82;;;13.30;99.90;;;;;;5052058;28;20349;-67
2022/10/27 05:58:33;;;;;;;20.17;11.32;;;13.30;99.90;;;;;;5052703;28;20040;-67
2022/10/27 06:01:37;;;;;;;26.20;12.55;;;13.40;99.90;;;;;;5052599;28;20044;-67
2022/10/27 06:04:41;;;;;;;32.08;12.52;;;13.40;99.90;;;;;;5051501;28;20040;-66
2022/10/27 06:07:45;;;;;;;39.35;13.07;;;13.50;99.90;;;;;;5040319;28;20248;-66
2022/10/27 06:10:49;;;;;;;31.85;12.60;;;13.70;99.90;;;;;;5040549;28;20091;-67
2022/10/27 06:13:53;;;;;;;26.65;10.70;;;13.90;99.90;;;;;;5051630;28;20052;-67
2022/10/27 06:16:58;;;;;;;20.70;10.30;;;14.10;99.90;;;;;;5032080;28;20064;-67
2022/10/27 06:20:03;;;;;;;19.83;7.30;;;14.30;99.90;;;;;;5032431;28;20036;-67
2022/10/27 06:23:08;;;;;;;15.95;7.18;;;14.70;99.90;;;;;;5032613;28;20044;-67
2022/10/27 06:26:11;;;;;;;16.90;6.45;;;15.30;99.90;;;;;;5038779;28;20051;-67
2022/10/27 06:29:15;;;;;;;14.35;6.88;;;16.10;99.90;;;;;;5048642;28;20036;-67
2022/10/27 06:32:21;;;;;;;18.08;7.05;;;16.90;99.90;;;;;;5036825;28;20040;-67
2022/10/27 06:35:24;;;;;;;20.77;6.28;;;17.90;99.90;;;;;;5043064;28;20047;-67
2022/10/27 06:38:28;;;;;;;19.52;6.45;;;18.50;99.90;;;;;;5044644;28;20048;-68
2022/10/27 06:41:32;;;;;;;14.77;6.25;;;18.60;99.90;;;;;;5040879;28;20051;-67
2022/10/27 06:44:36;;;;;;;10.75;5.47;;;19.70;99.90;;;;;;5050068;28;20044;-67
2022/10/27 06:47:40;;;;;;;17.20;6.32;;;19.70;99.90;;;;;;5032170;28;20048;-67
2022/10/27 06:50:44;;;;;;;24.85;7.72;;;20.60;99.90;;;;;;5047719;28;20513;-67
2022/10/27 06:53:48;;;;;;;25.60;9.10;;;21.50;99.90;;;;;;5049699;28;20056;-67
2022/10/27 06:56:52;;;;;;;29.83;9.55;;;22.30;99.90;;;;;;5044657;28;20084;-67
2022/10/27 06:59:56;;;;;;;25.83;8.23;;;22.90;99.90;;;;;;5032225;28;20052;-68
2022/10/27 07:03:06;;;;;;;30.25;8.50;;;23.50;99.90;;;;;;5037092;28;20037;-67
2022/10/27 07:06:10;;;;;;;26.15;8.05;;;24.00;99.90;;;;;;5034028;28;20048;-68
2022/10/27 07:09:14;;;;;;;23.65;9.05;;;24.50;99.90;;;;;;5033775;28;20036;-68
2022/10/27 07:12:17;;;;;;;34.55;8.90;;;25.00;99.90;;;;;;5034412;28;20393;-68
2022/10/27 07:15:23;;;;;;;13.45;6.38;;;24.40;99.90;;;;;;5040989;28;20056;-67
2022/10/27 07:18:27;;;;;;;207.25;11.80;;;22.20;99.90;;;;;;5034998;28;20381;-67
2022/10/27 07:21:32;;;;;;;118.25;9.15;;;20.90;99.90;;;;;;5036054;28;20036;-68
2022/10/27 07:24:36;;;;;;;57.47;8.15;;;20.70;99.90;;;;;;5047843;28;20483;-67
2022/10/27 07:27:39;;;;;;;81.68;7.75;;;20.80;99.90;;;;;;5046369;28;20053;-68
2022/10/27 07:30:44;;;;;;;161.65;10.05;;;20.70;99.90;;;;;;5040221;28;20040;-68
2022/10/27 07:33:48;;;;;;;63.83;7.53;;;20.70;99.90;;;;;;5045142;28;20048;-67
2022/10/27 07:36:52;;;;;;;29.40;6.43;;;20.50;99.90;;;;;;5036744;28;20404;-68
2022/10/27 07:39:56;;;;;;;11.65;6.10;;;21.20;99.90;;;;;;5043447;28;20044;-68
2022/10/27 07:43:00;;;;;;;24.70;6.32;;;21.50;99.90;;;;;;5040722;28;20041;-68
2022/10/27 07:46:06;;;;;;;11.95;5.85;;;21.90;99.90;;;;;;5038901;28;20059;-67
2022/10/27 07:49:10;;;;;;;10.68;6.22;;;22.60;99.90;;;;;;5038384;28;20120;-68
2022/10/27 07:52:14;;;;;;;31.55;6.60;;;24.50;99.90;;;;;;5048785;28;20052;-67
2022/10/27 07:55:21;;;;;;;26.33;6.70;;;24.90;99.90;;;;;;5054030;28;20044;-68
2022/10/27 07:58:25;;;;;;;17.48;6.15;;;25.60;99.90;;;;;;5054810;28;20040;-68
2022/10/27 08:01:29;;;;;;;12.05;5.95;;;25.90;99.90;;;;;;5042706;28;20395;-68
2022/10/27 08:04:32;;;;;;;11.43;5.85;;;25.80;99.90;;;;;;5041645;28;20036;-67
2022/10/27 08:07:37;;;;;;;12.27;5.63;;;26.10;99.90;;;;;;5039019;28;20048;-67
2022/10/27 08:10:43;;;;;;;17.42;6.20;;;26.50;99.90;;;;;;5035474;28;20044;-67
2022/10/27 08:13:47;;;;;;;21.20;6.18;;;26.70;99.90;;;;;;5054811;28;20502;-68
2022/10/27 08:16:51;;;;;;;11.55;6.25;;;26.40;99.90;;;;;;5042136;28;20044;-67
2022/10/27 08:19:54;;;;;;;13.27;5.78;;;26.30;99.90;;;;;;5034866;28;20434;-68
2022/10/27 08:23:04;;;;;;;12.88;5.93;;;26.90;99.90;;;;;;5034610;28;20107;-68
2022/10/27 08:26:08;;;;;;;8.73;5.60;;;26.80;99.90;;;;;;5034288;28;20068;-68
2022/10/27 08:29:12;;;;;;;8.15;5.50;;;26.50;99.90;;;;;;5046825;28;20049;-68
2022/10/27 08:32:16;;;;;;;13.05;5.70;;;27.30;99.90;;;;;;5049250;28;20036;-68
2022/10/27 08:35:20;;;;;;;10.70;5.45;;;28.60;99.90;;;;;;5053765;28;20048;-68
2022/10/27 08:38:24;;;;;;;14.80;5.95;;;29.70;99.90;;;;;;5034616;28;20048;-68
2022/10/27 08:41:58;;;;;;;10.57;5.25;;;29.60;99.40;;;;;;5041595;28;20032;-66
2022/10/27 08:45:08;;;;;;;9.50;5.78;;;29.00;99.20;;;;;;5048025;28;20129;-66
2022/10/27 08:48:12;;;;;;;15.15;5.82;;;26.90;99.90;;;;;;5035269;28;20053;-65
2022/10/27 08:51:21;;;;;;;12.15;5.43;;;27.40;99.90;;;;;;5036097;28;20056;-66
2022/10/27 08:54:27;;;;;;;10.02;5.15;;;28.80;99.70;;;;;;5051193;28;20040;-66
2022/10/27 08:57:32;;;;;;;13.45;4.72;;;31.00;98.10;;;;;;5050566;28;20056;-66
2022/10/27 09:00:55;;;;;;;9.85;4.85;;;31.10;97.70;;;;;;5039950;28;20036;-67
2022/10/27 09:04:14;;;;;;;8.73;4.82;;;30.90;97.20;;;;;;5044966;28;20032;-66
2022/10/27 09:07:27;;;;;;;8.43;4.88;;;29.10;98.70;;;;;;5047137;28;20044;-66
2022/10/27 09:10:39;;;;;;;11.95;5.32;;;28.30;99.30;;;;;;5044732;28;20475;-66
2022/10/27 09:14:05;;;;;;;6.55;4.20;;;29.30;98.90;;;;;;5047226;28;20523;-66
2022/10/27 09:17:21;;;;;;;9.80;5.32;;;30.10;98.00;;;;;;5049482;28;20511;-66
2022/10/27 09:20:51;;;;;;;16.40;4.55;;;30.00;97.80;;;;;;5051744;28;20423;-67
2022/10/27 09:24:04;;;;;;;8.63;4.00;;;33.20;95.10;;;;;;5039120;28;20400;-66
2022/10/27 09:27:14;;;;;;;8.30;4.50;;;33.30;95.30;;;;;;5046959;28;20048;-64
2022/10/27 09:30:18;;;;;;;10.07;4.32;;;33.60;94.50;;;;;;5049032;28;20059;-65
2022/10/27 09:33:28;;;;;;;7.63;4.25;;;34.30;94.20;;;;;;5045712;28;20114;-66
2022/10/27 09:36:33;;;;;;;14.43;4.50;;;32.90;93.90;;;;;;5048320;28;20056;-66
2022/10/27 09:39:37;;;;;;;11.23;4.50;;;32.60;94.70;;;;;;5046666;28;20052;-66
2022/10/27 09:42:42;;;;;;;11.93;5.10;;;31.70;95.00;;;;;;5050398;28;20044;-66
2022/10/27 09:45:50;;;;;;;10.18;4.57;;;30.90;95.60;;;;;;5046468;28;20039;-67
2022/10/27 09:49:04;;;;;;;14.18;6.10;;;31.30;96.00;;;;;;5041451;28;20040;-67
2022/10/27 09:52:14;;;;;;;14.57;5.90;;;31.80;95.40;;;;;;5043272;28;20056;-67
2022/10/27 09:55:19;;;;;;;15.65;4.90;;;33.70;94.40;;;;;;5043770;28;20372;-64
2022/10/27 09:58:23;;;;;;;12.93;5.70;;;34.00;94.40;;;;;;5040520;28;20044;-66
2022/10/27 10:01:42;;;;;;;8.88;5.13;;;35.10;93.20;;;;;;5046495;28;20036;-67
2022/10/27 10:04:47;;;;;;;9.57;5.67;;;35.60;92.40;;;;;;5047199;28;20036;-66
2022/10/27 10:07:51;;;;;;;14.77;5.50;;;34.30;92.70;;;;;;5047211;28;20463;-66
2022/10/27 10:10:57;;;;;;;15.88;6.45;;;33.20;93.90;;;;;;5049441;28;20044;-66
2022/10/27 10:14:02;;;;;;;16.13;6.50;;;33.20;93.30;;;;;;5042900;28;20036;-66
2022/10/27 10:17:17;;;;;;;19.45;6.53;;;33.80;93.70;;;;;;5046208;28;20048;-66
2022/10/27 10:20:32;;;;;;;22.70;6.55;;;34.50;93.10;;;;;;5047900;28;20043;-66
2022/10/27 10:23:50;;;;;;;15.68;5.88;;;33.70;92.70;;;;;;5047244;28;20595;-66
2022/10/27 10:27:00;;;;;;;13.77;6.43;;;36.10;91.40;;;;;;5043287;28;20380;-66
2022/10/27 10:30:05;;;;;;;14.10;5.47;;;36.80;91.00;;;;;;5046603;28;20048;-66
2022/10/27 10:33:15;;;;;;;17.77;6.25;;;35.10;91.30;;;;;;5033035;28;20032;-66
2022/10/27 10:36:23;;;;;;;17.50;5.95;;;34.30;91.30;;;;;;5041538;28;21285;-66
2022/10/27 10:39:31;;;;;;;14.60;5.63;;;36.40;90.60;;;;;;5044113;28;20037;-66
2022/10/27 10:42:35;;;;;;;16.00;5.03;;;38.50;89.20;;;;;;5037908;28;20051;-65
2022/10/27 10:45:41;;;;;;;15.60;5.15;;;39.30;86.90;;;;;;5044412;28;20040;-66
2022/10/27 10:48:54;;;;;;;24.52;5.88;;;40.00;85.50;;;;;;5040778;28;20040;-66
2022/10/27 10:52:02;;;;;;;16.70;4.80;;;40.00;84.80;;;;;;5047993;28;20398;-64
2022/10/27 10:55:21;;;;;;;16.45;5.43;;;40.30;82.80;;;;;;5044936;28;20051;-64
2022/10/27 10:58:29;;;;;;;15.98;5.07;;;40.60;82.00;;;;;;5048039;28;20511;-65
2022/10/27 11:01:52;;;;;;;20.92;5.28;;;41.60;81.40;;;;;;5040867;28;20032;-65
2022/10/27 11:05:18;;;;;;;18.73;5.32;;;41.60;78.60;;;;;;5038615;28;20044;-65
2022/10/27 11:08:26;;;;;;;15.27;5.13;;;41.50;78.80;;;;;;5044218;28;20514;-64
2022/10/27 11:11:45;;;;;;;25.92;5.85;;;39.60;80.40;;;;;;5036487;28;20040;-64
2022/10/27 11:14:51;;;;;;;17.05;5.93;;;36.80;82.00;;;;;;5043813;28;20808;-66
2022/10/27 11:18:03;;;;;;;25.48;5.63;;;36.20;83.70;;;;;;5047132;28;20100;-67
2022/10/27 11:21:29;;;;;;;24.58;6.15;;;35.00;85.10;;;;;;5045671;28;20388;-66
2022/10/27 11:24:50;;;;;;;19.88;5.75;;;34.30;87.00;;;;;;5039599;28;20040;-66
2022/10/27 11:28:03;;;;;;;23.50;5.82;;;35.90;86.70;;;;;;5048543;28;20048;-66
2022/10/27 11:31:40;;;;;;;24.95;5.60;;;37.60;84.30;;;;;;5049574;28;20513;-66
2022/10/27 11:35:06;;;;;;;23.08;5.97;;;38.30;82.90;;;;;;5042620;28;20044;-65
2022/10/27 11:38:32;;;;;;;20.77;5.75;;;39.40;81.60;;;;;;5050828;28;20039;-66
2022/10/27 11:41:44;;;;;;;20.10;5.47;;;38.30;81.80;;;;;;5044710;28;20047;-65
2022/10/27 11:45:12;;;;;;;25.00;5.95;;;38.80;81.20;;;;;;5034443;28;20044;-66
2022/10/27 11:48:31;;;;;;;19.48;6.85;;;38.80;80.10;;;;;;5048209;28;20036;-65
2022/10/27 11:52:20;;;;;;;19.83;5.53;;;37.80;80.60;;;;;;5045906;28;20546;-65
2022/10/27 11:55:39;;;;;;;27.35;5.90;;;37.30;81.70;;;;;;4974524;28;20054;-66
2022/10/27 11:58:43;;;;;;;21.20;5.35;;;36.10;82.70;;;;;;5042634;28;20052;-65
2022/10/27 12:02:22;;;;;;;27.02;5.43;;;37.00;81.90;;;;;;5040018;28;20048;-65
2022/10/27 12:05:41;;;;;;;13.82;4.97;;;37.40;80.20;;;;;;5033453;28;20040;-65
2022/10/27 12:08:52;;;;;;;22.23;5.68;;;38.30;79.00;;;;;;5048180;28;20553;-65
2022/10/27 12:12:14;;;;;;;24.85;5.93;;;39.50;78.60;;;;;;5038159;28;20387;-65
2022/10/27 12:15:45;;;;;;;28.00;5.60;;;38.70;78.20;;;;;;5043306;28;20052;-66
2022/10/27 12:19:30;;;;;;;24.60;6.30;;;38.00;79.20;;;;;;5043921;28;20511;-65
2022/10/27 12:23:02;;;;;;;32.70;6.50;;;38.70;79.90;;;;;;5044894;28;20040;-65
2022/10/27 12:26:36;;;;;;;18.20;5.97;;;36.50;80.10;;;;;;5047173;28;20056;-65
2022/10/27 12:29:47;;;;;;;33.88;6.80;;;34.80;82.60;;;;;;5048198;28;20044;-65
2022/10/27 12:33:01;;;;;;;26.85;6.35;;;34.30;83.90;;;;;;5053401;28;20040;-65
2022/10/27 12:36:24;;;;;;;30.13;6.00;;;34.30;85.50;;;;;;5046157;28;20044;-64
2022/10/27 12:39:42;;;;;;;23.25;5.72;;;34.40;84.90;;;;;;5047639;28;20040;-64
2022/10/27 12:43:07;;;;;;;21.90;5.80;;;35.10;83.90;;;;;;5049458;28;20052;-65
2022/10/27 12:46:50;;;;;;;25.55;6.18;;;34.50;84.90;;;;;;5050112;28;20127;-65
2022/10/27 12:49:57;;;;;;;23.00;6.63;;;34.40;85.50;;;;;;4993896;28;20044;-65
2022/10/27 12:53:02;;;;;;;27.83;6.55;;;34.30;86.10;;;;;;5048980;28;20044;-66
2022/10/27 12:56:32;;;;;;;21.17;6.55;;;34.80;85.00;;;;;;5049862;28;20053;-65
2022/10/27 13:00:04;;;;;;;23.55;5.70;;;35.90;83.70;;;;;;5046834;28;20040;-65
2022/10/27 13:03:45;;;;;;;20.40;5.88;;;35.40;83.70;;;;;;5052437;28;20048;-66
2022/10/27 13:07:07;;;;;;;;;;;35.60;83.40;;;;;;5044903;28;20578;-66
2022/10/27 13:10:48;;;;;;;35.15;8.88;;;34.80;83.50;;;;;;5050537;28;19908;-65
2022/10/27 13:13:59;;;;;;;37.85;8.80;;;33.60;85.00;;;;;;5046797;28;20151;-66
2022/10/27 13:17:29;;;;;;;29.75;7.72;;;34.70;84.70;;;;;;5044002;28;20039;-66
2022/10/27 13:21:04;;;;;;;20.67;7.95;;;35.10;83.30;;;;;;5043944;28;20399;-66
2022/10/27 13:24:28;;;;;;;37.30;7.95;;;35.40;82.70;;;;;;5044524;28;20052;-66
2022/10/27 13:27:52;;;;;;;30.00;7.70;;;36.20;81.90;;;;;;5041856;28;20060;-66
2022/10/27 13:31:05;;;;;;;23.00;6.70;;;37.30;81.40;;;;;;5048328;28;20045;-66
2022/10/27 13:34:09;;;;;;;20.73;6.57;;;36.80;80.50;;;;;;5049299;28;20396;-66
2022/10/27 13:37:36;;;;;;;25.17;6.55;;;37.10;80.10;;;;;;5042331;28;20052;-66
2022/10/27 13:40:40;;;;;;;21.23;5.90;;;37.00;80.80;;;;;;5048066;28;20396;-66
2022/10/27 13:43:44;;;;;;;19.23;5.55;;;36.10;80.50;;;;;;5048504;28;20028;-66
2022/10/27 13:47:14;;;;;;;23.95;6.70;;;35.60;81.50;;;;;;5047216;28;20048;-66
2022/10/27 13:50:35;;;;;;;29.40;6.93;;;36.30;82.30;;;;;;5038255;28;20388;-66
2022/10/27 13:53:39;;;;;;;21.63;6.03;;;35.90;82.60;;;;;;5047018;28;20775;-65
2022/10/27 13:56:43;;;;;;;28.63;6.10;;;34.90;82.40;;;;;;5038359;28;20052;-66
2022/10/27 13:59:47;;;;;;;28.92;6.22;;;34.60;83.00;;;;;;5042363;28;20063;-65
2022/10/27 14:02:57;;;;;;;27.95;6.18;;;35.10;82.60;;;;;;5049532;28;20494;-65
2022/10/27 14:06:21;;;;;;;26.17;6.40;;;34.60;82.90;;;;;;5050460;28;20400;-65
2022/10/27 14:09:37;;;;;;;28.20;7.10;;;33.70;84.20;;;;;;5052999;28;20040;-66
2022/10/27 14:12:41;;;;;;;21.27;6.38;;;34.50;84.30;;;;;;5051311;28;20395;-65
2022/10/27 14:15:48;;;;;;;53.85;9.85;;;34.10;83.50;;;;;;5048141;28;20032;-66
2022/10/27 14:19:27;;;;;;;22.75;7.03;;;34.20;83.70;;;;;;5048577;28;20047;-66
2022/10/27 14:22:46;;;;;;;21.95;5.88;;;34.20;83.30;;;;;;5046339;28;20052;-65
2022/10/27 14:25:50;;;;;;;36.30;7.60;;;33.60;83.80;;;;;;5048010;28;20044;-65
2022/10/27 14:28:54;;;;;;;27.58;5.75;;;33.70;84.70;;;;;;5052419;28;20040;-65
2022/10/27 14:32:19;;;;;;;25.27;5.57;;;33.50;84.40;;;;;;5050369;28;20043;-65
2022/10/27 14:35:29;;;;;;;24.92;5.80;;;33.30;84.90;;;;;;5041860;28;20040;-66
2022/10/27 14:38:33;;;;;;;31.50;7.22;;;33.40;84.60;;;;;;5050079;28;20052;-65
2022/10/27 14:41:39;;;;;;;21.13;6.53;;;32.90;85.90;;;;;;5047693;28;20036;-65
2022/10/27 14:44:47;;;;;;;33.17;6.25;;;32.60;85.90;;;;;;5044782;28;20064;-65
2022/10/27 14:48:01;;;;;;;30.80;6.63;;;32.60;86.50;;;;;;5046307;28;20044;-65
2022/10/27 14:51:13;;;;;;;22.95;6.95;;;32.40;86.70;;;;;;5050185;28;20064;-65
2022/10/27 14:54:19;;;;;;;29.00;7.45;;;32.00;87.40;;;;;;5047207;28;20060;-65
2022/10/27 14:57:32;;;;;;;37.33;7.47;;;31.70;87.90;;;;;;5050722;28;20044;-64
2022/10/27 15:00:37;;;;;;;25.75;6.57;;;31.50;88.60;;;;;;5050815;28;20503;-65
2022/10/27 15:03:41;;;;;;;39.85;8.15;;;31.10;89.20;;;;;;5047927;28;20028;-65
2022/10/27 15:06:46;;;;;;;30.05;8.32;;;30.80;90.10;;;;;;5041922;28;20048;-65
2022/10/27 15:09:50;;;;;;;32.85;7.82;;;30.40;90.40;;;;;;5045431;28;20051;-65
2022/10/27 15:12:58;;;;;;;30.85;7.60;;;30.10;90.50;;;;;;5047504;28;20116;-65
2022/10/27 15:16:10;;;;;;;30.88;6.93;;;29.60;91.20;;;;;;5050497;28;20048;-65
2022/10/27 15:19:15;;;;;;;48.58;7.65;;;29.40;91.90;;;;;;5052418;28;20511;-65
2022/10/27 15:22:22;;;;;;;48.60;9.50;;;29.00;92.60;;;;;;5046987;28;20067;-65
2022/10/27 15:25:29;;;;;;;29.77;8.18;;;28.60;93.40;;;;;;5043396;28;20044;-65
2022/10/27 15:28:35;;;;;;;33.88;7.82;;;28.30;93.90;;;;;;5046072;28;20036;-65
2022/10/27 15:31:40;;;;;;;31.35;7.95;;;28.00;94.30;;;;;;5046135;28;20526;-65
2022/10/27 15:34:45;;;;;;;32.22;8.63;;;27.60;94.30;;;;;;5049744;28;20044;-65
2022/10/27 15:37:49;;;;;;;30.00;8.32;;;27.30;95.00;;;;;;5046955;28;20039;-67
2022/10/27 15:41:06;;;;;;;33.10;8.27;;;26.90;95.70;;;;;;5048007;28;20044;-65
2022/10/27 15:44:10;;;;;;;33.22;7.93;;;26.50;96.30;;;;;;5050982;28;20044;-65
2022/10/27 15:47:40;;;;;;;40.97;8.65;;;26.10;96.70;;;;;;5051337;28;20036;-66
2022/10/27 15:51:15;;;;;;;39.83;8.48;;;25.70;97.40;;;;;;5051153;28;20048;-66
2022/10/27 15:54:31;;;;;;;38.00;9.30;;;25.30;98.20;;;;;;5050844;28;20040;-66
2022/10/27 15:57:40;;;;;;;34.83;9.45;;;25.00;99.20;;;;;;5051288;28;20384;-66
2022/10/27 16:01:10;;;;;;;35.53;9.32;;;24.60;99.90;;;;;;5053296;28;20048;-66
2022/10/27 16:04:32;;;;;;;45.35;9.70;;;24.20;99.90;;;;;;5055313;28;20468;-65
2022/10/27 16:07:36;;;;;;;32.70;9.43;;;23.80;99.90;;;;;;5054439;28;20513;-66
2022/10/27 16:10:40;;;;;;;39.03;9.27;;;23.40;99.90;;;;;;5054980;28;20036;-66